sensor_id;sensor_type;location;lat;lon;timestamp;pressure;altitude;pressure_sealevel;temperature;humidity
26657;BME280;14279;50.010;8.260;2023-11-21T00:00:50;99771.06;;;10.03;100.00
26657;BME280;14279;50.010;8.260;2023-11-21T00:03:15;99759.06;;;10.01;100.00
26657;BME280;14279;50.010;8.260;2023-11-21T00:05:41;99760.16;;;9.97;100.00
26657;BME280;14279;50.010;8.260;2023-11-21T00:08:07;99759.06;;;10.01;100.00
26657;BME280;14279;50.010;8.260;2023-11-21T00:10:33;99763.34;;;10.02;100.00
26657;BME280;14279;50.010;8.260;2023-11-21T00:12:58;99765.69;;;9.90;100.00
26657;BME280;14279;50.010;8.260;2023-11-21T00:15:23;99759.47;;;9.93;100.00
26657;BME280;14279;50.010;8.260;2023-11-21T00:17:49;99756.72;;;9.96;100.00
26657;BME280;14279;50.010;8.260;2023-11-21T00:20:14;99764.25;;;10.01;100.00
26657;BME280;14279;50.010;8.260;2023-11-21T00:22:40;99757.31;;;10.01;100.00
26657;BME280;14279;50.010;8.260;2023-11-21T00:25:06;99756.66;;;9.98;100.00
26657;BME280;14279;50.010;8.260;2023-11-21T00:27:35;99755.94;;;9.94;100.00
26657;BME280;14279;50.010;8.260;2023-11-21T00:30:03;99758.81;;;9.89;100.00
26657;BME280;14279;50.010;8.260;2023-11-21T00:32:32;99762.44;;;9.69;100.00
26657;BME280;14279;50.010;8.260;2023-11-21T00:35:01;99761.53;;;9.70;100.00
26657;BME280;14279;50.010;8.260;2023-11-21T00:37:36;99761.13;;;9.78;100.00
26657;BME280;14279;50.010;8.260;2023-11-21T00:40:21;99764.41;;;9.82;100.00
26657;BME280;14279;50.010;8.260;2023-11-21T00:42:47;99758.66;;;9.92;100.00
26657;BME280;14279;50.010;8.260;2023-11-21T00:45:12;99761.16;;;9.94;100.00
26657;BME280;14279;50.010;8.260;2023-11-21T00:47:38;99759.63;;;9.90;100.00
26657;BME280;14279;50.010;8.260;2023-11-21T00:50:04;99759.47;;;9.93;100.00
26657;BME280;14279;50.010;8.260;2023-11-21T00:52:32;99756.03;;;9.92;100.00
26657;BME280;14279;50.010;8.260;2023-11-21T00:55:01;99760.63;;;9.87;100.00
26657;BME280;14279;50.010;8.260;2023-11-21T00:57:28;99762.91;;;9.93;100.00
26657;BME280;14279;50.010;8.260;2023-11-21T00:59:54;99762.72;;;9.81;100.00
26657;BME280;14279;50.010;8.260;2023-11-21T01:02:20;99767.69;;;9.85;100.00
26657;BME280;14279;50.010;8.260;2023-11-21T01:04:46;99763.09;;;9.90;100.00
26657;BME280;14279;50.010;8.260;2023-11-21T01:07:12;99769.97;;;9.91;100.00
26657;BME280;14279;50.010;8.260;2023-11-21T01:09:38;99770.22;;;9.87;100.00
26657;BME280;14279;50.010;8.260;2023-11-21T01:12:04;99771.66;;;9.92;100.00
26657;BME280;14279;50.010;8.260;2023-11-21T01:14:29;99780.09;;;9.96;100.00
26657;BME280;14279;50.010;8.260;2023-11-21T01:16:54;99781.78;;;9.97;100.00
26657;BME280;14279;50.010;8.260;2023-11-21T01:19:20;99783.31;;;10.01;100.00
26657;BME280;14279;50.010;8.260;2023-11-21T01:21:46;99785.16;;;9.99;100.00
26657;BME280;14279;50.010;8.260;2023-11-21T01:24:12;99789.44;;;10.00;100.00
26657;BME280;14279;50.010;8.260;2023-11-21T01:26:37;99786.94;;;9.99;100.00
26657;BME280;14279;50.010;8.260;2023-11-21T01:29:02;99783.38;;;10.00;100.00
26657;BME280;14279;50.010;8.260;2023-11-21T01:31:28;99786.22;;;9.95;100.00
26657;BME280;14279;50.010;8.260;2023-11-21T01:33:55;99789.75;;;9.94;100.00
26657;BME280;14279;50.010;8.260;2023-11-21T01:36:20;99795.56;;;9.99;100.00
26657;BME280;14279;50.010;8.260;2023-11-21T01:38:46;99798.06;;;10.01;100.00
26657;BME280;14279;50.010;8.260;2023-11-21T01:41:14;99799.22;;;9.95;100.00
26657;BME280;14279;50.010;8.260;2023-11-21T01:43:40;99793.38;;;9.91;100.00
26657;BME280;14279;50.010;8.260;2023-11-21T01:46:06;99800.09;;;9.96;100.00
26657;BME280;14279;50.010;8.260;2023-11-21T01:48:32;99797.31;;;9.99;100.00
26657;BME280;14279;50.010;8.260;2023-11-21T01:50:58;99798.25;;;9.98;100.00
26657;BME280;14279;50.010;8.260;2023-11-21T01:53:25;99799.84;;;10.00;100.00
26657;BME280;14279;50.010;8.260;2023-11-21T01:55:51;99797.06;;;10.03;100.00
26657;BME280;14279;50.010;8.260;2023-11-21T01:58:17;99807.94;;;9.94;100.00
26657;BME280;14279;50.010;8.260;2023-11-21T02:00:43;99807.19;;;9.92;100.00
26657;BME280;14279;50.010;8.260;2023-11-21T02:03:08;99810.34;;;9.81;100.00
26657;BME280;14279;50.010;8.260;2023-11-21T02:05:35;99821.25;;;9.88;100.00
26657;BME280;14279;50.010;8.260;2023-11-21T02:08:01;99817.53;;;9.76;100.00
26657;BME280;14279;50.010;8.260;2023-11-21T02:10:28;99812.53;;;9.73;100.00
26657;BME280;14279;50.010;8.260;2023-11-21T02:12:54;99815.63;;;9.80;100.00
26657;BME280;14279;50.010;8.260;2023-11-21T02:15:22;99813.97;;;9.78;100.00
26657;BME280;14279;50.010;8.260;2023-11-21T02:17:52;99813.19;;;9.76;100.00
26657;BME280;14279;50.010;8.260;2023-11-21T02:20:19;99810.69;;;9.75;100.00
26657;BME280;14279;50.010;8.260;2023-11-21T02:22:50;99813.28;;;9.75;100.00
26657;BME280;14279;50.010;8.260;2023-11-21T02:25:23;99808.66;;;9.80;100.00
26657;BME280;14279;50.010;8.260;2023-11-21T02:27:48;99802.47;;;9.83;100.00
26657;BME280;14279;50.010;8.260;2023-11-21T02:30:15;99804.84;;;9.87;100.00
26657;BME280;14279;50.010;8.260;2023-11-21T02:32:41;99802.91;;;9.91;100.00
26657;BME280;14279;50.010;8.260;2023-11-21T02:35:08;99811.56;;;9.91;100.00
26657;BME280;14279;50.010;8.260;2023-11-21T02:37:33;99808.56;;;9.99;100.00
26657;BME280;14279;50.010;8.260;2023-11-21T02:39:59;99813.00;;;9.97;100.00
26657;BME280;14279;50.010;8.260;2023-11-21T02:42:24;99812.94;;;9.99;100.00
26657;BME280;14279;50.010;8.260;2023-11-21T02:44:50;99813.16;;;9.94;100.00
26657;BME280;14279;50.010;8.260;2023-11-21T02:47:15;99812.63;;;9.87;100.00
26657;BME280;14279;50.010;8.260;2023-11-21T02:49:40;99810.03;;;9.87;100.00
26657;BME280;14279;50.010;8.260;2023-11-21T02:52:05;99818.66;;;9.88;100.00
26657;BME280;14279;50.010;8.260;2023-11-21T02:54:31;99814.16;;;9.91;100.00
26657;BME280;14279;50.010;8.260;2023-11-21T02:57:01;99817.69;;;9.90;100.00
26657;BME280;14279;50.010;8.260;2023-11-21T02:59:27;99824.72;;;9.88;100.00
26657;BME280;14279;50.010;8.260;2023-11-21T03:01:52;99831.09;;;9.83;100.00
26657;BME280;14279;50.010;8.260;2023-11-21T03:04:18;99826.84;;;9.80;100.00
26657;BME280;14279;50.010;8.260;2023-11-21T03:06:45;99824.50;;;9.75;100.00
26657;BME280;14279;50.010;8.260;2023-11-21T03:09:11;99824.66;;;9.72;100.00
26657;BME280;14279;50.010;8.260;2023-11-21T03:11:39;99820.31;;;9.73;100.00
26657;BME280;14279;50.010;8.260;2023-11-21T03:14:04;99821.66;;;9.80;100.00
26657;BME280;14279;50.010;8.260;2023-11-21T03:16:31;99820.75;;;9.81;100.00
26657;BME280;14279;50.010;8.260;2023-11-21T03:18:56;99819.81;;;9.82;100.00
26657;BME280;14279;50.010;8.260;2023-11-21T03:21:22;99818.16;;;9.81;100.00
26657;BME280;14279;50.010;8.260;2023-11-21T03:23:47;99831.13;;;9.81;100.00
26657;BME280;14279;50.010;8.260;2023-11-21T03:26:12;99834.81;;;9.77;100.00
26657;BME280;14279;50.010;8.260;2023-11-21T03:28:38;99838.06;;;9.65;100.00
26657;BME280;14279;50.010;8.260;2023-11-21T03:31:03;99846.25;;;9.57;100.00
26657;BME280;14279;50.010;8.260;2023-11-21T03:33:29;99849.13;;;9.51;100.00
26657;BME280;14279;50.010;8.260;2023-11-21T03:35:54;99850.06;;;9.50;100.00
26657;BME280;14279;50.010;8.260;2023-11-21T03:38:19;99852.75;;;9.48;100.00
26657;BME280;14279;50.010;8.260;2023-11-21T03:40:45;99855.78;;;9.39;100.00
26657;BME280;14279;50.010;8.260;2023-11-21T03:43:10;99853.34;;;9.36;100.00
26657;BME280;14279;50.010;8.260;2023-11-21T03:45:36;99859.06;;;9.42;100.00
26657;BME280;14279;50.010;8.260;2023-11-21T03:48:01;99854.56;;;9.46;100.00
26657;BME280;14279;50.010;8.260;2023-11-21T03:50:28;99860.44;;;9.50;100.00
26657;BME280;14279;50.010;8.260;2023-11-21T03:52:54;99865.41;;;9.54;100.00
26657;BME280;14279;50.010;8.260;2023-11-21T03:55:19;99863.72;;;9.53;100.00
26657;BME280;14279;50.010;8.260;2023-11-21T03:57:44;99865.19;;;9.59;100.00
26657;BME280;14279;50.010;8.260;2023-11-21T04:00:10;99868.63;;;9.59;100.00
26657;BME280;14279;50.010;8.260;2023-11-21T04:02:36;99864.97;;;9.63;100.00
26657;BME280;14279;50.010;8.260;2023-11-21T04:05:01;99868.22;;;9.67;100.00
26657;BME280;14279;50.010;8.260;2023-11-21T04:07:26;99872.91;;;9.60;100.00
26657;BME280;14279;50.010;8.260;2023-11-21T04:09:52;99869.84;;;9.52;100.00
26657;BME280;14279;50.010;8.260;2023-11-21T04:12:18;99872.63;;;9.49;100.00
26657;BME280;14279;50.010;8.260;2023-11-21T04:14:44;99885.44;;;9.52;100.00
26657;BME280;14279;50.010;8.260;2023-11-21T04:17:09;99888.94;;;9.51;100.00
26657;BME280;14279;50.010;8.260;2023-11-21T04:19:34;99897.81;;;9.47;100.00
26657;BME280;14279;50.010;8.260;2023-11-21T04:22:00;99888.41;;;9.44;100.00
26657;BME280;14279;50.010;8.260;2023-11-21T04:24:25;99901.19;;;9.49;100.00
26657;BME280;14279;50.010;8.260;2023-11-21T04:26:50;99892.41;;;9.52;100.00
26657;BME280;14279;50.010;8.260;2023-11-21T04:29:16;99901.44;;;9.62;99.48
26657;BME280;14279;50.010;8.260;2023-11-21T04:31:41;99901.34;;;9.63;99.06
26657;BME280;14279;50.010;8.260;2023-11-21T04:34:07;99897.16;;;9.61;99.17
26657;BME280;14279;50.010;8.260;2023-11-21T04:36:33;99896.22;;;9.62;98.70
26657;BME280;14279;50.010;8.260;2023-11-21T04:39:00;99910.53;;;9.71;98.59
26657;BME280;14279;50.010;8.260;2023-11-21T04:41:25;99907.84;;;9.72;98.29
26657;BME280;14279;50.010;8.260;2023-11-21T04:43:50;99908.31;;;9.81;98.64
26657;BME280;14279;50.010;8.260;2023-11-21T04:46:16;99907.59;;;9.77;98.04
26657;BME280;14279;50.010;8.260;2023-11-21T04:48:41;99914.31;;;9.81;97.46
26657;BME280;14279;50.010;8.260;2023-11-21T04:51:06;99910.81;;;9.82;96.96
26657;BME280;14279;50.010;8.260;2023-11-21T04:53:32;99917.41;;;9.89;96.66
26657;BME280;14279;50.010;8.260;2023-11-21T04:55:57;99924.44;;;9.87;97.04
26657;BME280;14279;50.010;8.260;2023-11-21T04:58:23;99924.94;;;9.94;96.65
26657;BME280;14279;50.010;8.260;2023-11-21T05:00:48;99934.38;;;9.97;96.55
26657;BME280;14279;50.010;8.260;2023-11-21T05:03:15;99936.34;;;9.91;96.17
26657;BME280;14279;50.010;8.260;2023-11-21T05:05:40;99940.41;;;9.97;96.18
26657;BME280;14279;50.010;8.260;2023-11-21T05:08:05;99943.84;;;9.98;95.74
26657;BME280;14279;50.010;8.260;2023-11-21T05:10:31;99943.31;;;9.91;95.42
26657;BME280;14279;50.010;8.260;2023-11-21T05:12:56;99945.22;;;9.87;95.81
26657;BME280;14279;50.010;8.260;2023-11-21T05:15:22;99955.38;;;9.92;95.95
26657;BME280;14279;50.010;8.260;2023-11-21T05:17:48;99952.88;;;9.90;96.54
26657;BME280;14279;50.010;8.260;2023-11-21T05:20:16;99958.59;;;9.97;96.35
26657;BME280;14279;50.010;8.260;2023-11-21T05:22:49;99955.56;;;10.06;96.15
26657;BME280;14279;50.010;8.260;2023-11-21T05:25:16;99963.41;;;10.05;95.47
26657;BME280;14279;50.010;8.260;2023-11-21T05:27:44;99962.50;;;10.06;95.31
26657;BME280;14279;50.010;8.260;2023-11-21T05:30:10;99961.53;;;10.08;95.40
26657;BME280;14279;50.010;8.260;2023-11-21T05:32:38;99967.84;;;10.20;96.38
26657;BME280;14279;50.010;8.260;2023-11-21T05:35:31;99971.03;;;10.26;95.64
26657;BME280;14279;50.010;8.260;2023-11-21T05:38:39;99975.31;;;10.27;95.14
26657;BME280;14279;50.010;8.260;2023-11-21T05:41:05;99974.66;;;10.23;94.66
26657;BME280;14279;50.010;8.260;2023-11-21T05:43:30;99992.16;;;10.02;94.13
26657;BME280;14279;50.010;8.260;2023-11-21T05:45:56;99989.13;;;9.93;95.08
26657;BME280;14279;50.010;8.260;2023-11-21T05:48:22;99989.94;;;9.94;95.87
26657;BME280;14279;50.010;8.260;2023-11-21T05:50:48;99991.00;;;9.90;95.30
26657;BME280;14279;50.010;8.260;2023-11-21T05:53:15;99989.09;;;9.76;95.15
26657;BME280;14279;50.010;8.260;2023-11-21T05:55:41;99990.63;;;9.80;94.97
26657;BME280;14279;50.010;8.260;2023-11-21T05:58:07;99992.56;;;9.94;93.57
26657;BME280;14279;50.010;8.260;2023-11-21T06:00:33;99994.78;;;10.02;93.16
26657;BME280;14279;50.010;8.260;2023-11-21T06:02:59;99993.69;;;10.06;93.40
26657;BME280;14279;50.010;8.260;2023-11-21T06:05:26;100000.44;;;10.10;93.08
26657;BME280;14279;50.010;8.260;2023-11-21T06:07:55;99998.91;;;10.06;92.99
26657;BME280;14279;50.010;8.260;2023-11-21T06:10:24;99998.75;;;10.09;91.84
26657;BME280;14279;50.010;8.260;2023-11-21T06:12:49;100012.53;;;10.11;91.39
26657;BME280;14279;50.010;8.260;2023-11-21T06:15:15;100001.50;;;10.23;90.00
26657;BME280;14279;50.010;8.260;2023-11-21T06:17:42;100012.75;;;10.24;89.91
26657;BME280;14279;50.010;8.260;2023-11-21T06:20:09;100018.19;;;10.19;89.74
26657;BME280;14279;50.010;8.260;2023-11-21T06:22:37;100022.41;;;10.22;89.85
26657;BME280;14279;50.010;8.260;2023-11-21T06:25:02;100024.63;;;9.95;90.48
26657;BME280;14279;50.010;8.260;2023-11-21T06:27:31;100031.41;;;9.97;90.42
26657;BME280;14279;50.010;8.260;2023-11-21T06:29:56;100033.72;;;10.03;90.35
26657;BME280;14279;50.010;8.260;2023-11-21T06:32:21;100039.97;;;10.17;90.00
26657;BME280;14279;50.010;8.260;2023-11-21T06:34:48;100043.34;;;10.19;88.93
26657;BME280;14279;50.010;8.260;2023-11-21T06:37:14;100046.63;;;10.05;88.61
26657;BME280;14279;50.010;8.260;2023-11-21T06:39:40;100047.50;;;10.05;88.87
26657;BME280;14279;50.010;8.260;2023-11-21T06:42:05;100046.09;;;10.16;89.11
26657;BME280;14279;50.010;8.260;2023-11-21T06:44:30;100051.63;;;10.27;89.14
26657;BME280;14279;50.010;8.260;2023-11-21T06:46:56;100050.88;;;10.43;88.45
26657;BME280;14279;50.010;8.260;2023-11-21T06:49:21;100057.72;;;10.45;88.01
26657;BME280;14279;50.010;8.260;2023-11-21T06:51:46;100058.44;;;10.12;86.73
26657;BME280;14279;50.010;8.260;2023-11-21T06:54:12;100070.75;;;10.26;87.34
26657;BME280;14279;50.010;8.260;2023-11-21T06:56:37;100075.78;;;10.12;87.71
26657;BME280;14279;50.010;8.260;2023-11-21T06:59:04;100075.09;;;10.08;88.00
26657;BME280;14279;50.010;8.260;2023-11-21T07:01:30;100081.94;;;10.11;87.94
26657;BME280;14279;50.010;8.260;2023-11-21T07:03:59;100086.13;;;10.13;87.86
26657;BME280;14279;50.010;8.260;2023-11-21T07:06:24;100088.09;;;10.26;88.16
26657;BME280;14279;50.010;8.260;2023-11-21T07:08:49;100091.34;;;10.31;87.28
26657;BME280;14279;50.010;8.260;2023-11-21T07:11:15;100099.06;;;10.32;87.04
26657;BME280;14279;50.010;8.260;2023-11-21T07:13:40;100100.81;;;10.32;87.36
26657;BME280;14279;50.010;8.260;2023-11-21T07:16:05;100108.22;;;10.41;87.39
26657;BME280;14279;50.010;8.260;2023-11-21T07:18:31;100110.34;;;10.50;87.10
26657;BME280;14279;50.010;8.260;2023-11-21T07:20:56;100116.78;;;10.43;86.77
26657;BME280;14279;50.010;8.260;2023-11-21T07:23:24;100118.78;;;10.36;86.40
26657;BME280;14279;50.010;8.260;2023-11-21T07:25:49;100125.53;;;10.23;86.69
26657;BME280;14279;50.010;8.260;2023-11-21T07:28:14;100116.03;;;10.41;87.18
26657;BME280;14279;50.010;8.260;2023-11-21T07:30:40;100120.66;;;10.34;86.17
26657;BME280;14279;50.010;8.260;2023-11-21T07:33:06;100122.97;;;10.41;86.74
26657;BME280;14279;50.010;8.260;2023-11-21T07:35:32;100128.66;;;10.49;86.91
26657;BME280;14279;50.010;8.260;2023-11-21T07:37:57;100139.53;;;10.57;86.75
26657;BME280;14279;50.010;8.260;2023-11-21T07:40:23;100135.16;;;10.58;86.78
26657;BME280;14279;50.010;8.260;2023-11-21T07:42:48;100140.66;;;10.51;86.46
26657;BME280;14279;50.010;8.260;2023-11-21T07:45:15;100137.38;;;10.48;86.76
26657;BME280;14279;50.010;8.260;2023-11-21T07:47:40;100145.94;;;10.50;86.79
26657;BME280;14279;50.010;8.260;2023-11-21T07:50:06;100149.69;;;10.44;85.94
26657;BME280;14279;50.010;8.260;2023-11-21T07:52:32;100146.38;;;10.41;86.28
26657;BME280;14279;50.010;8.260;2023-11-21T07:54:58;100147.25;;;10.59;86.45
26657;BME280;14279;50.010;8.260;2023-11-21T07:57:23;100161.47;;;10.51;86.44
26657;BME280;14279;50.010;8.260;2023-11-21T07:59:49;100161.47;;;10.51;86.37
26657;BME280;14279;50.010;8.260;2023-11-21T08:02:14;100155.44;;;10.51;85.93
26657;BME280;14279;50.010;8.260;2023-11-21T08:04:41;100163.16;;;10.52;87.05
26657;BME280;14279;50.010;8.260;2023-11-21T08:07:07;100161.94;;;10.60;86.56
26657;BME280;14279;50.010;8.260;2023-11-21T08:09:32;100165.75;;;10.52;85.88
26657;BME280;14279;50.010;8.260;2023-11-21T08:11:59;100176.81;;;10.58;86.28
26657;BME280;14279;50.010;8.260;2023-11-21T08:14:25;100174.53;;;10.32;86.26
26657;BME280;14279;50.010;8.260;2023-11-21T08:16:51;100176.66;;;10.43;85.71
26657;BME280;14279;50.010;8.260;2023-11-21T08:19:17;100172.28;;;10.44;86.17
26657;BME280;14279;50.010;8.260;2023-11-21T08:21:43;100182.44;;;10.48;86.18
26657;BME280;14279;50.010;8.260;2023-11-21T08:24:10;100181.56;;;10.67;85.76
26657;BME280;14279;50.010;8.260;2023-11-21T08:26:37;100181.41;;;10.70;85.30
26657;BME280;14279;50.010;8.260;2023-11-21T08:29:04;100183.06;;;10.53;85.22
26657;BME280;14279;50.010;8.260;2023-11-21T08:31:32;100192.34;;;10.59;84.75
26657;BME280;14279;50.010;8.260;2023-11-21T08:33:59;100198.25;;;10.63;84.72
26657;BME280;14279;50.010;8.260;2023-11-21T08:36:28;100197.38;;;10.62;84.76
26657;BME280;14279;50.010;8.260;2023-11-21T08:38:53;100205.53;;;10.56;84.59
26657;BME280;14279;50.010;8.260;2023-11-21T08:41:18;100205.19;;;10.45;85.60
26657;BME280;14279;50.010;8.260;2023-11-21T08:43:47;100204.94;;;10.49;85.64
26657;BME280;14279;50.010;8.260;2023-11-21T08:46:13;100211.41;;;10.60;85.75
26657;BME280;14279;50.010;8.260;2023-11-21T08:48:38;100202.38;;;10.67;85.53
26657;BME280;14279;50.010;8.260;2023-11-21T08:51:04;100216.91;;;10.53;85.15
26657;BME280;14279;50.010;8.260;2023-11-21T08:53:29;100226.00;;;10.45;84.40
26657;BME280;14279;50.010;8.260;2023-11-21T08:55:56;100229.72;;;10.58;84.45
26657;BME280;14279;50.010;8.260;2023-11-21T08:58:22;100219.59;;;10.52;84.19
26657;BME280;14279;50.010;8.260;2023-11-21T09:00:47;100225.19;;;10.62;84.23
26657;BME280;14279;50.010;8.260;2023-11-21T09:03:13;100224.66;;;10.55;83.81
26657;BME280;14279;50.010;8.260;2023-11-21T09:05:39;100223.50;;;10.61;83.58
26657;BME280;14279;50.010;8.260;2023-11-21T09:08:04;100230.53;;;10.59;83.94
26657;BME280;14279;50.010;8.260;2023-11-21T09:10:35;100235.22;;;10.52;84.28
26657;BME280;14279;50.010;8.260;2023-11-21T09:13:02;100230.94;;;10.68;83.94
26657;BME280;14279;50.010;8.260;2023-11-21T09:15:27;100243.28;;;10.82;83.79
26657;BME280;14279;50.010;8.260;2023-11-21T09:17:53;100238.00;;;11.02;82.68
26657;BME280;14279;50.010;8.260;2023-11-21T09:20:18;100245.59;;;11.06;81.92
26657;BME280;14279;50.010;8.260;2023-11-21T09:22:48;100245.75;;;10.86;82.63
26657;BME280;14279;50.010;8.260;2023-11-21T09:25:17;100244.44;;;10.94;82.89
26657;BME280;14279;50.010;8.260;2023-11-21T09:27:44;100256.44;;;10.62;81.72
26657;BME280;14279;50.010;8.260;2023-11-21T09:30:12;100260.72;;;10.63;81.77
26657;BME280;14279;50.010;8.260;2023-11-21T09:32:39;100268.41;;;10.47;82.33
26657;BME280;14279;50.010;8.260;2023-11-21T09:35:05;100268.94;;;10.73;82.19
26657;BME280;14279;50.010;8.260;2023-11-21T09:37:33;100270.47;;;10.40;82.36
26657;BME280;14279;50.010;8.260;2023-11-21T09:39:58;100276.13;;;10.67;81.61
26657;BME280;14279;50.010;8.260;2023-11-21T09:42:34;100273.63;;;10.47;80.99
26657;BME280;14279;50.010;8.260;2023-11-21T09:45:27;100279.38;;;10.53;80.76
26657;BME280;14279;50.010;8.260;2023-11-21T09:47:57;100274.72;;;10.60;80.34
26657;BME280;14279;50.010;8.260;2023-11-21T09:50:22;100270.47;;;10.77;79.91
26657;BME280;14279;50.010;8.260;2023-11-21T09:52:55;100278.00;;;10.83;80.13
26657;BME280;14279;50.010;8.260;2023-11-21T09:55:26;100283.66;;;10.91;79.42
26657;BME280;14279;50.010;8.260;2023-11-21T09:57:52;100278.53;;;10.90;78.89
26657;BME280;14279;50.010;8.260;2023-11-21T10:00:18;100283.13;;;11.20;78.33
26657;BME280;14279;50.010;8.260;2023-11-21T10:02:46;100288.03;;;11.26;77.50
26657;BME280;14279;50.010;8.260;2023-11-21T10:05:13;100296.47;;;11.13;77.39
26657;BME280;14279;50.010;8.260;2023-11-21T10:07:39;100296.91;;;10.87;78.50
26657;BME280;14279;50.010;8.260;2023-11-21T10:10:07;100300.03;;;10.93;78.45
26657;BME280;14279;50.010;8.260;2023-11-21T10:12:33;100301.22;;;11.05;78.57
26657;BME280;14279;50.010;8.260;2023-11-21T10:15:01;100307.53;;;11.19;77.22
26657;BME280;14279;50.010;8.260;2023-11-21T10:17:29;100312.00;;;11.15;77.02
26657;BME280;14279;50.010;8.260;2023-11-21T10:20:02;100308.34;;;11.19;77.25
26657;BME280;14279;50.010;8.260;2023-11-21T10:22:31;100317.75;;;11.22;77.39
26657;BME280;14279;50.010;8.260;2023-11-21T10:24:56;100319.84;;;11.33;76.23
26657;BME280;14279;50.010;8.260;2023-11-21T10:27:22;100325.03;;;11.33;76.95
26657;BME280;14279;50.010;8.260;2023-11-21T10:29:51;100317.63;;;11.42;75.83
26657;BME280;14279;50.010;8.260;2023-11-21T10:32:16;100320.97;;;11.45;76.12
26657;BME280;14279;50.010;8.260;2023-11-21T10:34:42;100320.91;;;11.46;76.04
26657;BME280;14279;50.010;8.260;2023-11-21T10:37:13;100324.16;;;11.51;75.91
26657;BME280;14279;50.010;8.260;2023-11-21T10:39:39;100323.50;;;11.64;75.63
26657;BME280;14279;50.010;8.260;2023-11-21T10:42:08;100330.19;;;11.52;75.68
26657;BME280;14279;50.010;8.260;2023-11-21T10:44:34;100325.13;;;11.31;76.05
26657;BME280;14279;50.010;8.260;2023-11-21T10:46:59;100336.09;;;11.20;76.25
26657;BME280;14279;50.010;8.260;2023-11-21T10:49:26;100324.75;;;11.21;75.46
26657;BME280;14279;50.010;8.260;2023-11-21T10:51:53;100323.88;;;11.03;75.45
26657;BME280;14279;50.010;8.260;2023-11-21T10:54:20;100316.53;;;11.11;75.84
26657;BME280;14279;50.010;8.260;2023-11-21T10:56:59;100316.06;;;11.21;75.57
26657;BME280;14279;50.010;8.260;2023-11-21T10:59:31;100315.09;;;11.41;75.01
26657;BME280;14279;50.010;8.260;2023-11-21T11:02:01;100316.53;;;11.64;74.29
26657;BME280;14279;50.010;8.260;2023-11-21T11:04:28;100322.19;;;11.72;73.70
26657;BME280;14279;50.010;8.260;2023-11-21T11:06:56;100316.09;;;11.90;73.19
26657;BME280;14279;50.010;8.260;2023-11-21T11:09:22;100323.22;;;12.03;72.66
26657;BME280;14279;50.010;8.260;2023-11-21T11:11:48;100323.16;;;12.21;71.82
26657;BME280;14279;50.010;8.260;2023-11-21T11:14:14;100320.38;;;12.24;71.90
26657;BME280;14279;50.010;8.260;2023-11-21T11:16:40;100320.72;;;12.34;71.25
26657;BME280;14279;50.010;8.260;2023-11-21T11:19:07;100318.78;;;12.54;70.26
26657;BME280;14279;50.010;8.260;2023-11-21T11:24:49;100301.28;;;12.56;69.93
26657;BME280;14279;50.010;8.260;2023-11-21T11:27:29;100302.88;;;12.74;69.04
26657;BME280;14279;50.010;8.260;2023-11-21T11:35:42;100296.66;;;13.07;68.13
26657;BME280;14279;50.010;8.260;2023-11-21T11:38:12;100303.91;;;13.02;68.09
26657;BME280;14279;50.010;8.260;2023-11-21T11:40:45;100306.81;;;13.12;68.21
26657;BME280;14279;50.010;8.260;2023-11-21T11:43:11;100300.72;;;13.28;67.58
26657;BME280;14279;50.010;8.260;2023-11-21T11:45:37;100299.25;;;13.07;68.19
26657;BME280;14279;50.010;8.260;2023-11-21T11:48:07;100300.34;;;12.73;68.50
26657;BME280;14279;50.010;8.260;2023-11-21T11:50:33;100297.25;;;12.66;69.54
26657;BME280;14279;50.010;8.260;2023-11-21T11:53:15;100303.88;;;12.56;69.75
26657;BME280;14279;50.010;8.260;2023-11-21T11:55:41;100301.28;;;12.56;70.17
26657;BME280;14279;50.010;8.260;2023-11-21T11:58:07;100298.75;;;12.70;69.62
26657;BME280;14279;50.010;8.260;2023-11-21T12:00:34;100304.63;;;12.74;69.91
26657;BME280;14279;50.010;8.260;2023-11-21T12:03:03;100308.44;;;12.52;70.63
26657;BME280;14279;50.010;8.260;2023-11-21T12:05:30;100305.41;;;12.60;70.41
26657;BME280;14279;50.010;8.260;2023-11-21T12:08:00;100312.06;;;12.66;69.43
26657;BME280;14279;50.010;8.260;2023-11-21T12:10:28;100309.69;;;12.61;68.40
26657;BME280;14279;50.010;8.260;2023-11-21T12:12:55;100309.53;;;12.64;68.48
26657;BME280;14279;50.010;8.260;2023-11-21T12:15:22;100320.25;;;12.59;68.52
26657;BME280;14279;50.010;8.260;2023-11-21T12:17:49;100320.25;;;12.59;69.41
26657;BME280;14279;50.010;8.260;2023-11-21T12:20:18;100318.19;;;12.16;71.21
26657;BME280;14279;50.010;8.260;2023-11-21T12:22:49;100319.41;;;12.27;70.88
26657;BME280;14279;50.010;8.260;2023-11-21T12:25:18;100330.72;;;11.76;71.75
26657;BME280;14279;50.010;8.260;2023-11-21T12:27:51;100335.31;;;11.71;72.49
26657;BME280;14279;50.010;8.260;2023-11-21T12:30:22;100340.84;;;11.47;71.64
26657;BME280;14279;50.010;8.260;2023-11-21T12:32:49;100350.31;;;11.13;73.35
26657;BME280;14279;50.010;8.260;2023-11-21T12:35:17;100365.97;;;11.13;73.38
26657;BME280;14279;50.010;8.260;2023-11-21T12:37:45;100348.47;;;10.97;72.96
26657;BME280;14279;50.010;8.260;2023-11-21T12:40:10;100364.38;;;11.28;72.75
26657;BME280;14279;50.010;8.260;2023-11-21T12:42:44;100373.63;;;11.16;72.13
26657;BME280;14279;50.010;8.260;2023-11-21T12:49:25;100359.44;;;11.22;72.53
26657;BME280;14279;50.010;8.260;2023-11-21T12:55:44;100367.91;;;11.27;71.88
26657;BME280;14279;50.010;8.260;2023-11-21T12:58:32;100366.28;;;11.42;70.95
26657;BME280;14279;50.010;8.260;2023-11-21T13:01:06;100374.53;;;11.15;71.66
26657;BME280;14279;50.010;8.260;2023-11-21T13:03:56;100381.72;;;11.10;70.75
26657;BME280;14279;50.010;8.260;2023-11-21T13:07:02;100367.13;;;11.25;71.61
26657;BME280;14279;50.010;8.260;2023-11-21T13:09:32;100366.38;;;11.40;71.08
26657;BME280;14279;50.010;8.260;2023-11-21T13:12:01;100378.25;;;11.28;71.68